Time;durP1;ratioP1;P1;durP2;ratioP2;P2;SDS_P1;SDS_P2;PMS_P1;PMS_P2;Temp;Humidity;BMP_temperature;BMP_pressure;BME280_temperature;BME280_humidity;BME280_pressure;Samples;Min_cycle;Max_cycle;Signal;HPM_P1;HPM_P2
2023/10/29 00:00:12;;;;;;;11.20;8.57;;;10.90;98.10;;;;;;5080214;28;20078;-83
2023/10/29 00:02:38;;;;;;;10.52;9.43;;;11.00;98.10;;;;;;5079738;28;20051;-82
2023/10/29 00:05:04;;;;;;;12.00;9.50;;;11.00;98.30;;;;;;5096680;28;20039;-82
2023/10/29 00:07:30;;;;;;;9.90;8.90;;;11.00;98.30;;;;;;5113932;28;20027;-82
2023/10/29 00:09:56;;;;;;;13.35;9.50;;;10.90;98.20;;;;;;5079760;28;20142;-83
2023/10/29 00:12:21;;;;;;;12.80;9.02;;;11.00;98.30;;;;;;5096654;28;20051;-82
2023/10/29 00:14:47;;;;;;;10.50;8.75;;;11.00;98.40;;;;;;5096470;28;20114;-82
2023/10/29 00:17:13;;;;;;;11.73;8.50;;;11.00;98.20;;;;;;5096579;28;20035;-82
2023/10/29 00:19:39;;;;;;;9.77;7.72;;;11.00;98.10;;;;;;5096773;28;20043;-82
2023/10/29 00:22:05;;;;;;;9.55;7.07;;;11.00;98.10;;;;;;5096457;28;20040;-82
2023/10/29 00:24:30;;;;;;;11.07;9.00;;;11.00;98.10;;;;;;5062353;28;20036;-82
2023/10/29 00:26:56;;;;;;;9.85;8.82;;;11.00;98.10;;;;;;5096507;28;20043;-83
2023/10/29 00:29:22;;;;;;;9.50;7.15;;;11.00;98.20;;;;;;5096552;28;20039;-82
2023/10/29 00:31:47;;;;;;;9.43;7.85;;;11.00;98.10;;;;;;5079140;28;20047;-83
2023/10/29 00:34:13;;;;;;;12.23;8.07;;;11.00;98.20;;;;;;5096335;28;20050;-83
2023/10/29 00:36:39;;;;;;;8.00;6.93;;;11.10;98.30;;;;;;5096193;28;20035;-83
2023/10/29 00:39:05;;;;;;;7.18;6.13;;;11.00;98.30;;;;;;5096205;28;20122;-82
2023/10/29 00:41:30;;;;;;;7.80;6.55;;;11.10;98.30;;;;;;5062953;28;20051;-82
2023/10/29 00:43:57;;;;;;;6.25;5.65;;;11.10;98.60;;;;;;5079302;28;20395;-83
2023/10/29 00:46:23;;;;;;;5.63;5.03;;;11.10;98.80;;;;;;5079247;28;20122;-82
2023/10/29 00:48:50;;;;;;;6.45;5.55;;;11.10;98.70;;;;;;5113003;28;20028;-82
2023/10/29 00:51:17;;;;;;;6.10;5.20;;;11.20;99.10;;;;;;5079524;28;20084;-82
2023/10/29 00:53:44;;;;;;;5.28;4.63;;;11.20;98.90;;;;;;5079471;28;20043;-82
2023/10/29 00:56:12;;;;;;;7.43;5.32;;;11.30;99.00;;;;;;5096553;28;20127;-82
2023/10/29 00:58:38;;;;;;;6.53;4.57;;;11.30;98.80;;;;;;5096108;28;20122;-82
2023/10/29 01:01:04;;;;;;;6.35;5.07;;;11.30;98.70;;;;;;5095917;28;20071;-83
2023/10/29 01:03:29;;;;;;;6.50;5.60;;;11.40;98.80;;;;;;5095545;28;20059;-83
2023/10/29 01:05:56;;;;;;;7.07;5.45;;;11.40;99.30;;;;;;5095999;28;20040;-83
2023/10/29 01:08:22;;;;;;;7.00;5.60;;;11.40;99.10;;;;;;5112746;28;20040;-83
2023/10/29 01:10:48;;;;;;;7.15;5.18;;;11.40;99.10;;;;;;5079019;28;20047;-83
2023/10/29 01:13:14;;;;;;;5.63;4.90;;;11.40;98.90;;;;;;5112699;28;20047;-83
2023/10/29 01:15:39;;;;;;;6.78;5.20;;;11.50;98.70;;;;;;5095935;28;20118;-83
2023/10/29 01:18:06;;;;;;;5.18;4.68;;;11.50;98.90;;;;;;5095963;28;20092;-83
2023/10/29 01:20:32;;;;;;;4.45;4.05;;;11.50;98.80;;;;;;5096152;28;20087;-83
2023/10/29 01:23:01;;;;;;;8.60;5.60;;;11.60;98.90;;;;;;5078714;28;20495;-84
2023/10/29 01:25:27;;;;;;;5.72;5.13;;;11.60;98.70;;;;;;5113073;28;20446;-83
2023/10/29 01:27:54;;;;;;;7.22;5.63;;;11.60;98.80;;;;;;5079703;28;20032;-83
2023/10/29 01:30:19;;;;;;;5.78;4.85;;;11.60;98.70;;;;;;5095951;28;20515;-83
2023/10/29 01:32:45;;;;;;;6.10;5.40;;;11.70;98.80;;;;;;5095476;28;20044;-83
2023/10/29 01:35:11;;;;;;;6.57;5.55;;;11.70;98.80;;;;;;5097396;28;20083;-82
2023/10/29 01:37:37;;;;;;;6.70;5.90;;;11.70;98.80;;;;;;5066177;28;20035;-82
2023/10/29 01:40:03;;;;;;;7.03;4.95;;;11.80;98.70;;;;;;5116763;28;20096;-82
2023/10/29 01:42:29;;;;;;;6.82;5.18;;;11.90;98.70;;;;;;5099460;28;20487;-82
2023/10/29 01:44:55;;;;;;;6.35;4.50;;;11.90;98.80;;;;;;5083092;28;20036;-82
2023/10/29 01:47:21;;;;;;;5.70;4.10;;;11.90;98.90;;;;;;5099508;28;20095;-82
2023/10/29 01:49:46;;;;;;;6.82;5.03;;;12.00;98.70;;;;;;5099724;28;20047;-82
2023/10/29 01:52:12;;;;;;;5.82;4.30;;;12.00;98.70;;;;;;5116637;28;20063;-83
2023/10/29 01:54:38;;;;;;;5.90;4.57;;;12.00;98.60;;;;;;5083060;28;20043;-84
2023/10/29 01:57:04;;;;;;;5.57;3.55;;;12.10;98.60;;;;;;5082543;28;20117;-83
2023/10/29 01:59:30;;;;;;;5.40;3.78;;;12.10;98.40;;;;;;5082545;28;20062;-82
2023/10/29 02:01:56;;;;;;;5.80;3.70;;;12.10;98.40;;;;;;5082001;28;20484;-83
2023/10/29 02:04:26;;;;;;;4.00;3.15;;;12.10;98.40;;;;;;5116362;28;20052;-83
2023/10/29 02:06:56;;;;;;;4.10;3.40;;;12.20;98.40;;;;;;5083190;28;20494;-82
2023/10/29 02:09:22;;;;;;;3.42;3.13;;;12.20;98.40;;;;;;5099319;28;20035;-82
2023/10/29 02:11:48;;;;;;;3.58;2.70;;;12.20;98.40;;;;;;5099169;28;20118;-82
2023/10/29 02:14:14;;;;;;;11.30;3.00;;;12.20;98.30;;;;;;5099002;28;20130;-82
2023/10/29 02:16:40;;;;;;;5.75;2.63;;;12.20;98.20;;;;;;5098978;28;20077;-83
2023/10/29 02:19:06;;;;;;;3.75;2.50;;;12.30;98.20;;;;;;5082169;28;20040;-83
2023/10/29 02:21:34;;;;;;;4.13;2.50;;;12.20;98.30;;;;;;5098952;28;20131;-82
2023/10/29 02:24:01;;;;;;;3.85;2.17;;;12.30;98.20;;;;;;5098690;28;20035;-82
2023/10/29 02:26:27;;;;;;;6.25;2.05;;;12.30;98.20;;;;;;5099225;28;20395;-83
2023/10/29 02:28:53;;;;;;;4.45;2.15;;;12.30;98.10;;;;;;5115819;28;20084;-82
2023/10/29 02:31:22;;;;;;;5.13;2.20;;;12.30;98.20;;;;;;5117145;28;20040;-82
2023/10/29 02:33:47;;;;;;;3.42;2.20;;;12.40;98.10;;;;;;5115878;28;20043;-83
2023/10/29 02:36:14;;;;;;;3.97;2.20;;;12.40;98.10;;;;;;5081672;28;20399;-83
2023/10/29 02:38:42;;;;;;;5.72;1.98;;;12.40;98.10;;;;;;5115372;28;20184;-83
2023/10/29 02:41:08;;;;;;;3.25;1.95;;;12.50;98.10;;;;;;5082001;28;20475;-83
2023/10/29 02:43:34;;;;;;;6.40;1.85;;;12.40;98.00;;;;;;5098486;28;20126;-86
2023/10/29 02:46:00;;;;;;;3.88;1.88;;;12.50;98.00;;;;;;5098081;28;20040;-85
2023/10/29 02:48:26;;;;;;;3.63;1.70;;;12.50;97.90;;;;;;5098320;28;20044;-84
2023/10/29 02:50:53;;;;;;;4.00;1.60;;;12.50;97.70;;;;;;5115413;28;20078;-84
2023/10/29 02:53:19;;;;;;;3.30;1.35;;;12.50;97.70;;;;;;5098383;28;20093;-85
2023/10/29 02:55:45;;;;;;;3.72;1.35;;;12.50;97.60;;;;;;5098355;28;20043;-83
2023/10/29 02:58:10;;;;;;;4.50;2.13;;;12.50;97.60;;;;;;5064629;28;20039;-82
2023/10/29 03:00:36;;;;;;;5.57;1.08;;;12.60;97.50;;;;;;5098412;28;20039;-82
2023/10/29 03:03:02;;;;;;;3.97;1.30;;;12.60;97.60;;;;;;5064405;28;20101;-83
2023/10/29 03:05:27;;;;;;;4.53;2.05;;;12.70;97.30;;;;;;5082114;28;20394;-83
2023/10/29 03:07:53;;;;;;;4.15;1.33;;;12.60;97.20;;;;;;5081088;28;20043;-82
2023/10/29 03:10:19;;;;;;;3.97;1.75;;;12.60;97.20;;;;;;5097827;28;20096;-84
2023/10/29 03:12:45;;;;;;;3.38;1.35;;;12.60;97.10;;;;;;5080664;28;20050;-84
2023/10/29 03:15:11;;;;;;;3.70;1.70;;;12.60;96.90;;;;;;5080616;28;20040;-82
2023/10/29 03:17:37;;;;;;;2.88;1.67;;;12.60;96.90;;;;;;5081141;28;20040;-84
2023/10/29 03:20:03;;;;;;;6.43;1.45;;;12.70;96.80;;;;;;5081222;28;20080;-83
2023/10/29 03:22:28;;;;;;;4.30;1.50;;;12.70;96.80;;;;;;5097620;28;20046;-84
2023/10/29 03:24:54;;;;;;;2.15;1.10;;;12.70;96.50;;;;;;5081168;28;20035;-85
2023/10/29 03:27:20;;;;;;;5.90;1.42;;;12.70;96.50;;;;;;5114761;28;20484;-84
2023/10/29 03:29:45;;;;;;;8.75;1.80;;;12.70;96.20;;;;;;5114690;28;20593;-83
2023/10/29 03:32:11;;;;;;;2.95;0.98;;;12.70;96.40;;;;;;5080894;28;20399;-84
2023/10/29 03:34:37;;;;;;;2.15;1.08;;;12.60;96.30;;;;;;5080670;28;20035;-83
2023/10/29 03:37:02;;;;;;;4.10;1.48;;;12.70;96.30;;;;;;5097708;28;20039;-84
2023/10/29 03:39:30;;;;;;;2.15;1.10;;;12.60;96.00;;;;;;5097399;28;20031;-82
2023/10/29 03:41:56;;;;;;;2.30;1.25;;;12.60;96.10;;;;;;5097616;28;20038;-84
2023/10/29 03:44:22;;;;;;;4.13;1.13;;;12.60;96.20;;;;;;5081007;28;20399;-85
2023/10/29 03:46:52;;;;;;;2.60;1.30;;;12.60;96.20;;;;;;5063787;28;20127;-85
2023/10/29 03:49:18;;;;;;;3.63;1.02;;;12.70;96.10;;;;;;5097067;28;20035;-84
2023/10/29 03:51:46;;;;;;;2.45;1.00;;;12.70;95.90;;;;;;5080221;28;20041;-82
2023/10/29 03:54:11;;;;;;;1.30;0.80;;;12.70;95.90;;;;;;5097161;28;20040;-84
2023/10/29 03:56:37;;;;;;;3.97;1.20;;;12.70;95.50;;;;;;5080279;28;20043;-84
2023/10/29 03:59:03;;;;;;;2.53;0.90;;;12.70;95.40;;;;;;5098007;28;20035;-84
2023/10/29 04:01:29;;;;;;;2.80;1.10;;;12.80;95.00;;;;;;5064562;28;20043;-83
2023/10/29 04:03:55;;;;;;;1.55;0.80;;;12.90;94.80;;;;;;5097514;28;20060;-84
2023/10/29 04:06:20;;;;;;;3.03;1.10;;;12.90;94.90;;;;;;5097962;28;20039;-82
2023/10/29 04:08:47;;;;;;;4.00;0.90;;;12.90;94.80;;;;;;5080962;28;20040;-84
2023/10/29 04:11:13;;;;;;;3.88;1.08;;;13.00;94.70;;;;;;5080443;28;20387;-83
2023/10/29 04:13:39;;;;;;;1.95;1.33;;;13.00;94.50;;;;;;5097067;28;20455;-83
2023/10/29 04:16:05;;;;;;;3.47;0.90;;;13.00;94.40;;;;;;5080462;28;20036;-84
2023/10/29 04:18:31;;;;;;;4.32;1.27;;;13.00;94.60;;;;;;5097778;28;20047;-85
2023/10/29 04:20:58;;;;;;;2.08;0.90;;;13.00;94.30;;;;;;5097154;28;20456;-84
2023/10/29 04:23:24;;;;;;;1.83;0.80;;;13.00;94.40;;;;;;5063619;28;20449;-84
2023/10/29 04:25:49;;;;;;;1.20;0.55;;;12.90;93.70;;;;;;5079889;28;20039;-83
2023/10/29 04:28:15;;;;;;;2.30;0.70;;;12.70;93.40;;;;;;5096394;28;20035;-83
2023/10/29 04:30:41;;;;;;;2.75;0.75;;;12.70;93.60;;;;;;5096417;28;20085;-84
2023/10/29 04:33:08;;;;;;;2.35;0.60;;;12.50;92.90;;;;;;5079598;28;20134;-83
2023/10/29 04:35:33;;;;;;;2.85;0.70;;;12.50;93.00;;;;;;5113907;28;20088;-84
2023/10/29 04:37:59;;;;;;;1.67;0.50;;;12.50;93.40;;;;;;5079883;28;20043;-83
2023/10/29 04:40:25;;;;;;;1.63;0.68;;;12.40;91.40;;;;;;5063275;28;20406;-83
2023/10/29 04:42:50;;;;;;;2.13;0.73;;;12.50;91.10;;;;;;5096789;28;20109;-83
2023/10/29 04:45:16;;;;;;;1.33;0.50;;;12.40;90.60;;;;;;5079458;28;20108;-83
2023/10/29 04:47:42;;;;;;;1.10;0.43;;;12.40;91.00;;;;;;5079431;28;20042;-83
2023/10/29 04:50:08;;;;;;;0.95;0.40;;;12.30;91.10;;;;;;5079278;28;20118;-83
2023/10/29 04:52:34;;;;;;;1.38;0.70;;;12.30;91.50;;;;;;5113686;28;20043;-82
2023/10/29 04:55:05;;;;;;;1.83;0.43;;;12.20;90.70;;;;;;5096719;28;20039;-83
2023/10/29 04:57:30;;;;;;;3.17;0.50;;;12.30;91.80;;;;;;5113864;28;20051;-83
2023/10/29 04:59:56;;;;;;;3.33;0.50;;;12.20;90.80;;;;;;5096577;28;20042;-83
2023/10/29 05:02:22;;;;;;;1.08;0.50;;;12.10;90.80;;;;;;5062248;28;20135;-83
2023/10/29 05:04:50;;;;;;;2.45;0.47;;;12.10;90.90;;;;;;5079179;28;20036;-82
2023/10/29 05:07:15;;;;;;;3.63;0.60;;;12.10;91.50;;;;;;5095776;28;20383;-83
2023/10/29 05:09:41;;;;;;;0.98;0.40;;;12.10;91.20;;;;;;5078842;28;20039;-83
2023/10/29 05:12:07;;;;;;;2.47;0.50;;;12.00;91.60;;;;;;5079379;28;20040;-82
2023/10/29 05:14:33;;;;;;;1.55;0.43;;;12.00;91.60;;;;;;5079851;28;20409;-82
2023/10/29 05:16:59;;;;;;;1.98;0.80;;;12.00;91.90;;;;;;5063253;28;20471;-83
2023/10/29 05:19:24;;;;;;;2.22;0.50;;;12.00;92.20;;;;;;5096102;28;20070;-83
2023/10/29 05:21:50;;;;;;;1.30;0.60;;;12.00;92.30;;;;;;5112614;28;20044;-83
2023/10/29 05:24:16;;;;;;;2.30;0.70;;;12.10;92.40;;;;;;5078495;28;20101;-84
2023/10/29 05:26:42;;;;;;;1.33;0.70;;;12.10;92.70;;;;;;5095229;28;20047;-83
2023/10/29 05:29:09;;;;;;;2.42;0.73;;;12.10;92.90;;;;;;5078816;28;20035;-84
2023/10/29 05:31:34;;;;;;;1.83;0.57;;;12.10;93.00;;;;;;5095753;28;20092;-82
2023/10/29 05:34:01;;;;;;;4.07;1.00;;;12.10;93.40;;;;;;5078762;28;20134;-83
2023/10/29 05:36:27;;;;;;;5.68;1.20;;;12.10;93.60;;;;;;5062647;28;20118;-82
2023/10/29 05:38:53;;;;;;;2.75;0.85;;;12.20;93.50;;;;;;5078893;28;20057;-84
2023/10/29 05:41:19;;;;;;;4.38;0.80;;;12.30;93.40;;;;;;5078890;28;20592;-84
2023/10/29 05:43:45;;;;;;;4.20;1.55;;;12.40;93.10;;;;;;5112107;28;20040;-84
2023/10/29 05:46:14;;;;;;;3.20;0.82;;;12.40;92.80;;;;;;5080011;28;20046;-83
2023/10/29 05:48:40;;;;;;;3.65;0.95;;;12.50;92.90;;;;;;5078585;28;20040;-83
2023/10/29 05:51:06;;;;;;;5.63;1.42;;;12.50;92.90;;;;;;5112301;28;20042;-84
2023/10/29 05:53:31;;;;;;;1.85;0.68;;;12.50;93.10;;;;;;5095437;28;20088;-85
2023/10/29 05:55:57;;;;;;;1.70;0.63;;;12.50;93.20;;;;;;5095368;28;20035;-83
2023/10/29 05:58:26;;;;;;;1.85;0.75;;;12.50;93.30;;;;;;5078422;28;20047;-82
2023/10/29 06:00:52;;;;;;;2.95;1.00;;;12.50;93.30;;;;;;5078929;28;20105;-85
2023/10/29 06:03:18;;;;;;;3.88;0.82;;;12.50;93.20;;;;;;5095320;28;20056;-86
2023/10/29 06:05:44;;;;;;;3.78;0.70;;;12.50;93.20;;;;;;5112180;28;20054;-84
2023/10/29 06:08:10;;;;;;;1.80;0.60;;;12.50;93.20;;;;;;5095080;28;20032;-84
2023/10/29 06:10:35;;;;;;;1.38;0.90;;;12.50;92.70;;;;;;5061859;28;20043;-84
2023/10/29 06:13:01;;;;;;;1.42;0.68;;;12.50;92.50;;;;;;5112201;28;20075;-84
2023/10/29 06:15:27;;;;;;;2.03;0.60;;;12.50;91.70;;;;;;5078630;28;20039;-84
2023/10/29 06:17:56;;;;;;;2.42;0.63;;;12.40;90.70;;;;;;5080323;28;20524;-83
2023/10/29 06:20:22;;;;;;;3.28;0.70;;;12.30;90.20;;;;;;5062005;28;20039;-85
2023/10/29 06:22:48;;;;;;;0.70;0.50;;;12.30;89.10;;;;;;5097400;28;20108;-83
2023/10/29 06:25:17;;;;;;;2.50;0.70;;;12.20;88.50;;;;;;5116165;28;20414;-84
2023/10/29 06:27:43;;;;;;;2.28;0.93;;;12.30;89.50;;;;;;5099625;28;20038;-82
2023/10/29 06:30:13;;;;;;;2.88;0.70;;;12.20;89.40;;;;;;5099183;28;20027;-84
2023/10/29 06:32:39;;;;;;;1.65;0.55;;;12.10;89.20;;;;;;5082385;28;20542;-86
2023/10/29 06:35:05;;;;;;;1.60;0.60;;;12.10;89.70;;;;;;5098895;28;20044;-84
2023/10/29 06:37:31;;;;;;;1.17;0.70;;;12.00;90.10;;;;;;5098532;28;20086;-83
2023/10/29 06:39:57;;;;;;;2.95;0.52;;;12.00;90.30;;;;;;5082332;28;20075;-82
2023/10/29 06:42:23;;;;;;;3.25;0.55;;;11.90;90.60;;;;;;5081627;28;20043;-85
2023/10/29 06:44:48;;;;;;;5.45;1.15;;;11.90;90.80;;;;;;5099044;28;20106;-84
2023/10/29 06:47:14;;;;;;;3.08;0.80;;;11.90;91.00;;;;;;5081729;28;20092;-84
2023/10/29 06:49:41;;;;;;;3.03;0.70;;;11.90;91.40;;;;;;5064937;28;20035;-84
2023/10/29 06:52:07;;;;;;;1.50;0.80;;;12.00;91.50;;;;;;5115458;28;20035;-85
2023/10/29 06:54:34;;;;;;;3.80;0.90;;;12.00;91.50;;;;;;5081623;28;20088;-84
2023/10/29 06:57:00;;;;;;;3.00;0.80;;;12.00;91.60;;;;;;5082533;28;20042;-83
2023/10/29 06:59:30;;;;;;;4.18;0.95;;;12.10;91.40;;;;;;5115325;28;20038;-85
2023/10/29 07:01:58;;;;;;;7.00;1.33;;;12.10;91.20;;;;;;5081836;28;20074;-83
2023/10/29 07:04:24;;;;;;;4.15;0.82;;;12.20;91.30;;;;;;5102021;28;20127;-82
2023/10/29 07:06:52;;;;;;;5.30;1.77;;;12.10;91.20;;;;;;5081629;28;20035;-85
2023/10/29 07:09:18;;;;;;;6.80;1.30;;;12.20;91.30;;;;;;5098436;28;20084;-85
2023/10/29 07:11:45;;;;;;;4.00;0.90;;;12.30;91.30;;;;;;5098026;28;20032;-86
2023/10/29 07:14:11;;;;;;;2.45;0.73;;;12.30;91.00;;;;;;5081480;28;20100;-86
2023/10/29 07:16:43;;;;;;;3.22;1.42;;;12.30;91.10;;;;;;5098302;28;20039;-83
2023/10/29 07:19:12;;;;;;;5.10;1.20;;;12.30;91.00;;;;;;5115225;28;20039;-85
2023/10/29 07:21:38;;;;;;;4.45;0.82;;;12.30;90.90;;;;;;5098316;28;20051;-83
2023/10/29 07:24:05;;;;;;;3.78;1.15;;;12.30;91.00;;;;;;5081044;28;20036;-87
2023/10/29 07:26:34;;;;;;;4.60;1.13;;;12.40;90.90;;;;;;5081445;28;20126;-85
2023/10/29 07:29:01;;;;;;;6.00;1.40;;;12.30;91.10;;;;;;5082000;28;20078;-84
2023/10/29 07:31:27;;;;;;;6.78;1.60;;;12.40;91.10;;;;;;5115768;28;20036;-84
2023/10/29 07:33:53;;;;;;;6.28;2.15;;;12.40;91.00;;;;;;5063936;28;20039;-82
2023/10/29 07:36:20;;;;;;;3.80;1.10;;;12.40;90.80;;;;;;5097619;28;20051;-84
2023/10/29 07:38:46;;;;;;;4.03;1.05;;;12.50;90.70;;;;;;5097587;28;20487;-84
2023/10/29 07:41:20;;;;;;;4.35;1.20;;;12.50;90.80;;;;;;5098128;28;20099;-86
2023/10/29 07:43:47;;;;;;;7.47;1.30;;;12.50;90.60;;;;;;5097384;28;20042;-82
2023/10/29 07:46:16;;;;;;;4.65;0.95;;;12.50;90.30;;;;;;5097416;28;20043;-83
2023/10/29 07:48:42;;;;;;;9.30;1.42;;;12.60;90.30;;;;;;5098079;28;20046;-84
2023/10/29 07:51:09;;;;;;;8.40;1.60;;;12.60;90.40;;;;;;5080311;28;20039;-85
2023/10/29 07:53:35;;;;;;;4.40;1.17;;;12.70;90.10;;;;;;5098035;28;20449;-84
2023/10/29 07:56:13;;;;;;;7.50;1.40;;;12.70;90.50;;;;;;5097177;28;20043;-82
2023/10/29 07:58:39;;;;;;;7.63;1.77;;;12.60;91.00;;;;;;5115046;28;20066;-82
2023/10/29 08:01:15;;;;;;;6.28;2.42;;;12.60;91.00;;;;;;5097463;28;20048;-83
2023/10/29 08:03:43;;;;;;;4.97;1.75;;;12.50;91.30;;;;;;5096934;28;20079;-83
2023/10/29 08:06:11;;;;;;;7.60;1.80;;;12.50;91.90;;;;;;5114998;28;20046;-83
2023/10/29 08:08:37;;;;;;;3.60;1.45;;;12.40;91.90;;;;;;5080427;28;20455;-83
2023/10/29 08:11:03;;;;;;;6.93;1.65;;;12.30;92.30;;;;;;5113878;28;20095;-85
2023/10/29 08:13:29;;;;;;;8.93;2.00;;;12.30;92.20;;;;;;5097015;28;20043;-83
2023/10/29 08:15:55;;;;;;;8.40;1.90;;;12.40;92.10;;;;;;5063301;28;20137;-85
2023/10/29 08:18:21;;;;;;;9.98;1.55;;;12.40;92.10;;;;;;5113779;28;20047;-84
2023/10/29 08:20:47;;;;;;;8.27;1.33;;;12.40;92.30;;;;;;5096676;28;20191;-85
2023/10/29 08:23:13;;;;;;;4.85;1.33;;;12.50;92.60;;;;;;5079787;28;20044;-84
2023/10/29 08:25:39;;;;;;;8.30;1.65;;;12.60;92.40;;;;;;5064401;28;20122;-83
2023/10/29 08:28:08;;;;;;;9.38;2.08;;;12.70;92.10;;;;;;5097256;28;20042;-82
2023/10/29 08:30:34;;;;;;;4.68;1.35;;;12.80;91.90;;;;;;5113595;28;20082;-81
2023/10/29 08:33:00;;;;;;;6.95;1.70;;;12.90;91.30;;;;;;5113415;28;20040;-80
2023/10/29 08:35:29;;;;;;;6.80;1.65;;;13.00;91.40;;;;;;5098718;28;20447;-81
2023/10/29 08:37:56;;;;;;;5.57;1.58;;;13.00;90.10;;;;;;5064577;28;20156;-80
2023/10/29 08:40:22;;;;;;;4.93;1.70;;;13.10;90.60;;;;;;5096112;28;20101;-85
2023/10/29 08:42:48;;;;;;;7.60;1.92;;;13.10;90.60;;;;;;5095957;28;20039;-83
2023/10/29 08:45:13;;;;;;;3.95;1.23;;;13.10;90.00;;;;;;5078599;28;20089;-84
2023/10/29 08:47:39;;;;;;;7.47;1.90;;;13.10;89.50;;;;;;5113210;28;20081;-83
2023/10/29 08:50:07;;;;;;;8.07;1.92;;;13.10;89.90;;;;;;5079458;28;20036;-83
2023/10/29 08:52:32;;;;;;;2.83;0.98;;;12.90;89.40;;;;;;5079731;28;20039;-83
2023/10/29 08:54:58;;;;;;;5.10;1.20;;;12.80;89.90;;;;;;5095835;28;20188;-83
2023/10/29 08:57:24;;;;;;;6.50;1.75;;;12.80;89.80;;;;;;5095848;28;20051;-83
2023/10/29 08:59:50;;;;;;;10.43;1.70;;;12.80;89.60;;;;;;5079374;28;20437;-83
2023/10/29 09:02:15;;;;;;;7.72;1.92;;;12.70;89.90;;;;;;5079248;28;20490;-83
2023/10/29 09:04:42;;;;;;;3.65;1.45;;;12.70;90.40;;;;;;5079695;28;20048;-84
2023/10/29 09:07:08;;;;;;;3.85;1.10;;;12.70;90.50;;;;;;5062310;28;20120;-84
2023/10/29 09:09:36;;;;;;;8.63;2.00;;;12.60;91.80;;;;;;5095989;28;20054;-83
2023/10/29 09:12:01;;;;;;;4.80;1.20;;;12.50;92.00;;;;;;5062967;28;20069;-83
2023/10/29 09:14:27;;;;;;;4.07;1.42;;;12.50;92.10;;;;;;5096178;28;20475;-83
2023/10/29 09:16:53;;;;;;;10.15;1.88;;;12.50;92.40;;;;;;5064118;28;20081;-84
2023/10/29 09:19:20;;;;;;;4.50;1.73;;;12.40;92.10;;;;;;5100356;28;20075;-83
2023/10/29 09:21:46;;;;;;;9.35;1.70;;;12.30;92.20;;;;;;5093184;28;20130;-84
2023/10/29 09:24:11;;;;;;;8.27;1.45;;;12.40;91.90;;;;;;5092896;28;20122;-83
2023/10/29 09:26:37;;;;;;;8.80;1.50;;;12.40;92.00;;;;;;5092806;28;20119;-82
2023/10/29 09:29:03;;;;;;;6.22;1.60;;;12.50;91.50;;;;;;5059050;28;20067;-82
2023/10/29 09:31:29;;;;;;;7.13;1.67;;;12.50;91.50;;;;;;5092920;28;20508;-83
2023/10/29 09:33:55;;;;;;;8.50;2.30;;;12.50;91.50;;;;;;5110787;28;20123;-84
2023/10/29 09:36:24;;;;;;;6.68;1.42;;;12.60;91.60;;;;;;5089486;28;20135;-84
2023/10/29 09:38:49;;;;;;;7.13;1.40;;;12.70;91.70;;;;;;5070426;28;20043;-84
2023/10/29 09:41:17;;;;;;;6.63;1.25;;;12.90;91.40;;;;;;5072377;28;20127;-86
2023/10/29 09:43:43;;;;;;;5.38;1.77;;;13.20;91.10;;;;;;5072807;28;20075;-87
2023/10/29 09:46:10;;;;;;;5.18;1.30;;;13.40;90.30;;;;;;5055296;28;20082;-85
2023/10/29 09:48:37;;;;;;;5.63;1.30;;;13.50;90.00;;;;;;5074902;28;20035;-86
2023/10/29 09:51:05;;;;;;;6.55;1.65;;;13.60;89.10;;;;;;5093548;28;20116;-85
2023/10/29 09:53:32;;;;;;;3.95;1.20;;;13.80;88.90;;;;;;5076853;28;21279;-85
2023/10/29 09:55:58;;;;;;;5.15;1.98;;;13.70;87.10;;;;;;5094310;28;20071;-85
2023/10/29 09:58:26;;;;;;;3.67;1.30;;;13.70;87.00;;;;;;5079016;28;20390;-83
2023/10/29 10:00:52;;;;;;;7.10;1.17;;;13.80;87.70;;;;;;5097334;28;20050;-83
2023/10/29 10:03:18;;;;;;;6.70;1.08;;;13.80;87.30;;;;;;5079908;28;20577;-85
2023/10/29 10:05:46;;;;;;;4.22;1.38;;;13.80;87.10;;;;;;5097183;28;20123;-87
2023/10/29 10:08:12;;;;;;;5.70;1.33;;;13.70;86.80;;;;;;5095691;28;20092;-83
2023/10/29 10:10:41;;;;;;;6.65;1.50;;;13.70;87.40;;;;;;5097461;28;20047;-86
2023/10/29 10:13:07;;;;;;;5.88;1.05;;;13.70;87.00;;;;;;5097924;28;20088;-85
2023/10/29 10:15:33;;;;;;;6.80;1.40;;;13.80;87.40;;;;;;5114001;28;20372;-84
2023/10/29 10:18:07;;;;;;;9.80;2.38;;;13.80;87.20;;;;;;5078963;28;20058;-85
2023/10/29 10:20:36;;;;;;;9.48;1.52;;;13.70;87.50;;;;;;5075729;28;20126;-85
2023/10/29 10:23:04;;;;;;;4.60;1.30;;;13.60;88.10;;;;;;5073680;28;20120;-85
2023/10/29 10:25:31;;;;;;;5.22;1.25;;;13.60;88.10;;;;;;5074383;28;20143;-85
2023/10/29 10:28:00;;;;;;;3.72;1.30;;;13.70;88.10;;;;;;5067071;28;20090;-83
2023/10/29 10:30:38;;;;;;;5.30;1.15;;;13.60;87.10;;;;;;5107463;28;20643;-85
2023/10/29 10:33:10;;;;;;;4.10;1.55;;;13.70;87.20;;;;;;5074547;27;20604;-84
2023/10/29 10:35:46;;;;;;;4.57;1.75;;;13.70;87.40;;;;;;5074552;28;20048;-84
2023/10/29 10:38:13;;;;;;;4.93;1.60;;;13.60;87.20;;;;;;5091601;27;20066;-86
2023/10/29 10:40:39;;;;;;;7.40;1.67;;;13.50;86.80;;;;;;5075986;28;20522;-85
2023/10/29 10:43:06;;;;;;;8.15;1.85;;;13.40;87.80;;;;;;5075208;27;20136;-85
2023/10/29 10:45:33;;;;;;;7.07;2.75;;;13.50;87.40;;;;;;5090760;28;20517;-83
2023/10/29 10:48:01;;;;;;;7.45;1.98;;;13.40;87.50;;;;;;5089412;28;20140;-83
2023/10/29 10:50:28;;;;;;;6.93;1.67;;;13.30;87.10;;;;;;5096981;28;20059;-83
2023/10/29 10:52:57;;;;;;;7.40;1.85;;;13.30;87.70;;;;;;5082504;28;20040;-83
2023/10/29 10:55:24;;;;;;;5.55;2.10;;;13.30;87.00;;;;;;5082241;28;20465;-84
2023/10/29 10:57:50;;;;;;;4.63;1.55;;;13.30;87.30;;;;;;5087399;28;20127;-86
2023/10/29 11:00:18;;;;;;;8.88;1.50;;;13.40;86.50;;;;;;5097963;28;20039;-85
2023/10/29 11:02:45;;;;;;;9.20;1.67;;;13.50;87.20;;;;;;5114354;28;20381;-84
2023/10/29 11:05:12;;;;;;;6.18;1.73;;;13.40;86.20;;;;;;5094753;28;20047;-85
2023/10/29 11:07:40;;;;;;;5.90;1.40;;;13.50;86.30;;;;;;5076141;28;20172;-84
2023/10/29 11:10:10;;;;;;;7.70;2.50;;;13.40;86.20;;;;;;5076527;28;20091;-84
2023/10/29 11:12:36;;;;;;;8.20;2.25;;;13.50;86.40;;;;;;5060678;28;20052;-85
2023/10/29 11:15:15;;;;;;;4.30;1.15;;;13.50;86.00;;;;;;5047439;28;20119;-83
2023/10/29 11:17:59;;;;;;;6.68;1.92;;;13.50;86.20;;;;;;5076906;28;20127;-83
2023/10/29 11:20:38;;;;;;;6.60;1.77;;;13.50;86.30;;;;;;5069805;27;20046;-84
2023/10/29 11:23:15;;;;;;;7.30;1.73;;;13.50;85.80;;;;;;5110793;28;20427;-85
2023/10/29 11:25:41;;;;;;;7.05;1.75;;;13.50;85.80;;;;;;5094442;28;20040;-85
2023/10/29 11:28:28;;;;;;;7.25;1.45;;;13.50;86.00;;;;;;5092303;28;20032;-84
2023/10/29 11:31:15;;;;;;;7.53;2.20;;;13.70;85.60;;;;;;5110309;28;20043;-83
2023/10/29 11:33:48;;;;;;;6.38;1.50;;;14.00;85.60;;;;;;5094857;28;20040;-85
2023/10/29 11:36:37;;;;;;;6.95;1.40;;;14.00;84.90;;;;;;5095736;28;20109;-84
2023/10/29 11:39:29;;;;;;;5.57;2.25;;;13.90;84.60;;;;;;5080598;28;20039;-83
2023/10/29 11:41:55;;;;;;;5.60;2.53;;;13.80;84.50;;;;;;5114692;28;20441;-84
2023/10/29 11:44:27;;;;;;;4.60;1.27;;;14.00;84.80;;;;;;5097810;28;20043;-83
2023/10/29 11:46:58;;;;;;;7.88;2.03;;;14.10;85.00;;;;;;5114141;28;20036;-85
2023/10/29 11:49:27;;;;;;;10.05;2.08;;;14.10;84.30;;;;;;5115029;28;20482;-86
2023/10/29 11:52:06;;;;;;;12.90;1.80;;;14.00;84.80;;;;;;5080651;28;20047;-84
2023/10/29 11:54:37;;;;;;;8.25;1.73;;;14.00;84.70;;;;;;5097491;28;20036;-83
2023/10/29 11:57:06;;;;;;;7.00;1.75;;;13.90;84.70;;;;;;5064759;28;20046;-85
2023/10/29 11:59:31;;;;;;;10.88;2.42;;;13.90;84.10;;;;;;5096455;28;20050;-81
2023/10/29 12:01:57;;;;;;;9.75;2.65;;;13.80;84.70;;;;;;5096738;28;20040;-84
2023/10/29 12:04:30;;;;;;;8.20;2.13;;;13.70;84.80;;;;;;5079875;28;20062;-83
2023/10/29 12:06:58;;;;;;;9.95;2.20;;;13.70;85.00;;;;;;5097923;28;20044;-83
2023/10/29 12:09:27;;;;;;;7.95;1.67;;;13.60;85.20;;;;;;5077252;28;20301;-83
2023/10/29 12:11:54;;;;;;;11.52;2.55;;;13.50;85.00;;;;;;5082666;28;20128;-83
2023/10/29 12:14:39;;;;;;;11.77;2.10;;;13.50;85.20;;;;;;5058646;28;20050;-84
2023/10/29 12:17:06;;;;;;;15.55;2.30;;;13.50;85.60;;;;;;5112701;28;20051;-82
2023/10/29 12:19:35;;;;;;;5.80;1.98;;;13.40;86.00;;;;;;5075609;28;20043;-83
2023/10/29 12:22:02;;;;;;;7.50;1.55;;;13.30;85.80;;;;;;5074601;28;20054;-84
2023/10/29 12:24:29;;;;;;;8.55;2.10;;;13.30;86.00;;;;;;5076323;28;20043;-83
2023/10/29 12:26:55;;;;;;;7.75;2.45;;;13.30;85.40;;;;;;5095793;28;20055;-84
2023/10/29 12:29:20;;;;;;;8.32;2.28;;;13.30;85.70;;;;;;5075797;28;20392;-84
2023/10/29 12:31:47;;;;;;;9.90;2.30;;;13.30;85.50;;;;;;5110354;28;20051;-84
2023/10/29 12:34:13;;;;;;;7.45;2.90;;;13.30;85.60;;;;;;5075133;28;20632;-83
2023/10/29 12:36:38;;;;;;;10.38;2.20;;;13.20;85.50;;;;;;5093186;28;20102;-83
2023/10/29 12:39:06;;;;;;;18.23;2.42;;;13.20;85.40;;;;;;5076342;28;20173;-84
2023/10/29 12:41:32;;;;;;;10.48;2.30;;;13.20;85.40;;;;;;5093235;28;20039;-83
2023/10/29 12:43:59;;;;;;;9.65;2.60;;;13.30;85.30;;;;;;5075048;28;20510;-83